Terminal Aerodrome Forecast
Issued by NWS Dodge City, KS

Home | Current Version | Previous Version | Text Only | Print | Product List | Glossary On
Versions: 1 2 3 4 5 6 7 8 9 10 11 12 13 14 15 16 17 18 19 20
000
FTUS43 KDDC 071540 AAC
TAFDDC
TAF AMD
KDDC 071540Z 0716/0812 05009KT 4SM -SN BKN045 OVC060
      TEMPO 0716/0718 2SM -SN BKN020
     FM072000 04015G25KT P6SM OVC030
     FM080000 01010KT P6SM BKN040=

USA.gov is the U.S. government's official web portal to all federal, state and local government web resources and services.